aviador You're here:

KGUS Decoded Metar

PERU in IN, USA
Report Time2017-12-16 17:56:00
UTC Time2017-12-16 18:52:29
Flight Rules vfr VFR
Wind240° at 15 kt
W.Decomp.*RWY 23: 14.7 kt HW 3.1 kt RCW
W.Rank240° ranks 10
Current wind is above 240° avg. (9.9)
Visibility9999 m
Phenomena:N/A
Clouds:N/A
Expected CloudBase > 4,400 ft AGL from Temp-Dew spread
CeilingNone
Temp08°C (ISA -5)
Dew Point-3°C (46% RH)
AAT0.2°C
QNH1014 hPa
Density Alt200 ft
Elevation810 ft
Report Wrong Elevation
Raw Report
KGUS 161756Z AUTO 24015KT 10SM CLR 08/M03 A2994 RMK AO2 SLP147
T00791027 10079 20000 50000 $=

Extra information for KGUS:More info

Metar Taf Metar & Taf Last 4 Metars F.Rules Stats Wind Profile Meteogram Temp Stats Airport Information Weather charts Add Link Nearby VenuesMetar ALERT Operation Metar Decoded Social comments

AIRNAV info for KGUS